• Join FlightAware (Why Join?)
  • Login
  • US Flag 
10:59PM EDT


 

Airport Tracker/Info


-or-


 

Live Flight TrackerFlight Track Log ✈ EJA941 ✈ 13-Aug-2013 ✈ KLUK - KSJC

Flight Track Log - Related Links

Times and Time Zones

All times are in EDT time to prevent confusion due to time zone crossing. See the EJA941 flight status page for this flight to view local times or setup timezone preferences in your user account.

Time Position Orientation Groundspeed Altitude Reporting Facility
EDT Latitude Longitude Course Direction KTS MPH feet Rate Location/Type
12:41PM 39.1333 -84.4000 90° East 199 229 1,400  Level Cincinnati TRACON
12:42PM 39.1333 -84.3500 90° East 224 258 2,800 2,160 Climbing Cincinnati TRACON
12:43PM 39.0833 -84.3000 142° Southeast 280 322 4,900 2,040 Climbing Cincinnati TRACON
12:44PM 39.0167 -84.3333 201° Southwest 285 328 6,700 3,000 Climbing Cincinnati TRACON
12:45PM 38.9625 -84.4069 227° Southwest 288 331 10,700 2,760 Climbing Indianapolis Center
12:46PM 38.8944 -84.4853 222° Southwest 324 373 12,400 2,220 Climbing Indianapolis Center
12:47PM 38.8194 -84.5700 221° Southwest 360 414 15,400 2,040 Climbing Indianapolis Center
12:48PM 38.7764 -84.6817 244° Southwest 359 413 16,700 1,140 Climbing Indianapolis Center
12:49PM 38.7594 -84.8117 261° West 362 417 17,800 1,200 Climbing Indianapolis Center
12:50PM 38.7414 -84.9625 261° West 364 419 19,200 1,140 Climbing Indianapolis Center
12:51PM 38.7242 -85.0936 260° West 372 428 20,200 1,020 Climbing Indianapolis Center
12:52PM 38.7081 -85.2225 261° West 369 425 21,400 1,020 Climbing Indianapolis Center
12:53PM 38.6919 -85.3542 261° West 375 432 22,400 960 Climbing Indianapolis Center
12:54PM 38.6733 -85.4889 260° West 382 440 23,400 960 Climbing Indianapolis Center
12:55PM 38.6558 -85.6247 261° West 387 445 24,400 900 Climbing Indianapolis Center
12:56PM 38.6367 -85.7625 260° West 392 451 25,300 960 Climbing Indianapolis Center
12:57PM 38.6150 -85.9272 260° West 402 463 26,400 900 Climbing Indianapolis Center
12:58PM 38.5964 -86.0697 261° West 406 467 27,200 720 Climbing Indianapolis Center
12:59PM 38.5756 -86.2136 260° West 410 472 27,900 600 Climbing Indianapolis Center
01:00PM 38.5550 -86.3619 260° West 420 483 28,500 720 Climbing Indianapolis Center
01:01PM 38.5342 -86.5108 260° West 426 490 29,400 780 Climbing Indianapolis Center
01:02PM 38.5131 -86.6589 260° West 424 488 30,200 900 Climbing Indianapolis Center
01:03PM 38.4922 -86.8064 260° West 424 488 31,300 1,140 Climbing Indianapolis Center
01:04PM 38.4669 -86.9800 260° West 419 482 32,600 1,200 Climbing Indianapolis Center
01:05PM 38.4469 -87.1236 260° West 420 483 33,900 1,260 Climbing Indianapolis Center
01:06PM 38.4256 -87.2650 259° West 415 478 35,200 1,680 Climbing Indianapolis Center
01:08PM 38.4044 -87.4036 259° West 404 465 37,400 1,680 Climbing Indianapolis Center
01:09PM 38.3856 -87.5342 260° West 379 436 38,700 1,200 Climbing Indianapolis Center
01:10PM 38.3606 -87.6908 259° West 376 433 40,000 1,020 Climbing Indianapolis Center
01:11PM 38.3411 -87.8208 259° West 375 432 40,900 780 Climbing Indianapolis Center
01:12PM 38.3206 -87.9514 259° West 374 430 41,700 600 Climbing Indianapolis Center
01:13PM 38.3006 -88.0844 259° West 381 438 42,200 600 Climbing Indianapolis Center
01:14PM 38.2806 -88.2181 259° West 381 438 43,000 360 Climbing Kansas City Center
01:15PM 38.2600 -88.3525 259° West 383 441 43,000  Level Kansas City Center
01:16PM 38.2381 -88.4914 259° West 395 455 43,000  Level Kansas City Center
01:17PM 38.2164 -88.6333 259° West 404 465 43,000  Level Kansas City Center
01:18PM 38.1892 -88.7969 258° West 412 474 43,000  Level Kansas City Center
01:19PM 38.1656 -88.9403 258° West 414 476 43,000  Level Kansas City Center
01:20PM 38.1375 -89.0964 257° West 424 488 43,000  Level Kansas City Center
01:21PM 38.1108 -89.2525 258° West 423 487 43,000  Level Kansas City Center
01:22PM 38.0864 -89.3981 258° West 421 484 43,000  Level Kansas City Center
01:23PM 38.0628 -89.5444 258° West 422 486 43,000  Level Kansas City Center
01:24PM 38.0350 -89.7028 257° West 425 489 43,000  Level Kansas City Center
01:25PM 38.0106 -89.8500 258° West 426 490 43,000  Level Kansas City Center
01:26PM 37.9417 -89.9906 238° Southwest 442 509 43,000  Level Kansas City Center
01:27PM 37.8742 -90.1064 234° Southwest 445 512 43,000  Level Kansas City Center
01:28PM 37.8019 -90.2342 234° Southwest 445 512 43,000  Level Kansas City Center
01:29PM 37.7456 -90.3683 242° Southwest 438 504 43,000  Level Kansas City Center
01:30PM 37.7256 -90.5186 260° West 433 498 43,000  Level Kansas City Center
01:31PM 37.7008 -90.6978 260° West 432 497 43,000  Level Kansas City Center
01:32PM 37.6800 -90.8456 260° West 431 496 43,000  Level Kansas City Center
01:33PM 37.6589 -90.9942 260° West 430 495 43,000  Level Kansas City Center
01:34PM 37.6369 -91.1419 259° West 428 493 43,000  Level Kansas City Center
01:35PM 37.6167 -91.2908 260° West 429 494 43,000  Level Kansas City Center
01:36PM 37.5947 -91.4419 260° West 432 497 43,000  Level Kansas City Center
01:37PM 37.5675 -91.6228 259° West 434 499 43,000  Level Kansas City Center
01:38PM 37.5458 -91.7744 260° West 436 502 43,000  Level Kansas City Center
01:40PM 37.5222 -91.9256 259° West 438 504 43,000  Level Kansas City Center
01:41PM 37.5000 -92.0781 260° West 438 504 43,000  Level Kansas City Center
01:42PM 37.4769 -92.2300 259° West 438 504 43,000  Level Kansas City Center
01:43PM 37.4533 -92.3833 259° West 441 507 43,000  Level Kansas City Center
01:44PM 37.4306 -92.5361 259° West 441 507 43,000  Level Kansas City Center
01:45PM 37.4067 -92.6883 259° West 441 507 43,000  Level Kansas City Center
01:46PM 37.3783 -92.8708 259° West 441 507 43,000  Level Kansas City Center
01:47PM 37.3536 -93.0231 258° West 441 507 43,000  Level Kansas City Center
01:48PM 37.3292 -93.1744 259° West 441 507 43,000  Level Kansas City Center
01:49PM 37.3042 -93.3272 258° West 443 510 43,000  Level Kansas City Center
01:50PM 37.2806 -93.4797 259° West 444 511 43,000  Level Kansas City Center
01:51PM 37.2556 -93.6331 258° West 446 513 43,000  Level Kansas City Center
01:52PM 37.2292 -93.7853 258° West 446 513 43,000  Level Kansas City Center
01:53PM 37.1981 -93.9697 258° West 447 514 43,000  Level Kansas City Center
01:54PM 37.1731 -94.1231 258° West 448 516 43,000  Level Kansas City Center
01:55PM 37.1486 -94.2778 259° West 450 518 43,000  Level Kansas City Center
01:56PM 37.1219 -94.4314 258° West 452 520 43,000  Level Kansas City Center
01:57PM 37.0947 -94.5828 257° West 450 518 43,000  Level Kansas City Center
01:58PM 37.0681 -94.7361 258° West 450 518 43,000  Level Kansas City Center
01:59PM 37.0353 -94.9175 257° West 449 517 43,000  Level Kansas City Center
02:00PM 37.0081 -95.0706 257° West 451 519 43,000  Level Kansas City Center
02:01PM 36.9806 -95.2242 257° West 454 522 43,000  Level Kansas City Center
02:02PM 36.9528 -95.3772 257° West 454 522 43,000  Level Kansas City Center
02:03PM 36.9256 -95.5319 258° West 458 527 43,000  Level Kansas City Center
02:04PM 36.8919 -95.7158 257° West 456 525 43,000  Level Kansas City Center
02:05PM 36.8631 -95.8678 257° West 455 524 43,000  Level Kansas City Center
02:06PM 36.8344 -96.0197 257° West 454 522 43,000  Level Kansas City Center
02:07PM 36.8239 -96.1744 265° West 453 521 43,000  Level Kansas City Center
02:09PM 36.8117 -96.3275 264° West 448 516 43,000  Level Kansas City Center
02:10PM 36.7981 -96.5136 265° West 449 517 43,000  Level Kansas City Center
02:11PM 36.7856 -96.6689 264° West 450 518 43,000  Level Kansas City Center
02:12PM 36.7731 -96.8253 264° West 451 519 43,000  Level Kansas City Center
02:14PM 36.7497 -97.1372 265° West 455 524 43,000  Level Kansas City Center
02:15PM 36.7597 -97.2917 275° West 454 522 43,000  Level Kansas City Center
02:16PM 36.7775 -97.4744 277° West 448 516 43,000  Level Kansas City Center
02:17PM 36.7897 -97.6333 276° West 451 519 43,000  Level Kansas City Center
02:18PM 36.8028 -97.7756 277° West 453 521 43,000  Level Kansas City Center
02:19PM 36.8164 -97.9303 276° West 451 519 43,000  Level Kansas City Center
02:20PM 36.8314 -98.0981 276° West 448 516 43,000  Level Kansas City Center
02:21PM 36.8447 -98.2550 276° West 451 519 43,000  Level Kansas City Center
02:22PM 36.8592 -98.4283 276° West 453 521 43,000  Level Kansas City Center
02:23PM 36.8725 -98.5839 276° West 452 520 43,000  Level Kansas City Center
02:24PM 36.8844 -98.7386 276° West 452 520 43,000  Level Kansas City Center
02:25PM 36.8967 -98.8944 276° West 451 519 43,000  Level Kansas City Center
02:26PM 36.9089 -99.0508 276° West 452 520 43,000  Level Kansas City Center
02:27PM 36.9231 -99.2367 276° West 451 519 43,000  Level Kansas City Center
02:28PM 36.9350 -99.3911 276° West 450 518 43,000  Level Kansas City Center
02:29PM 36.9464 -99.5461 275° West 449 517 43,000  Level Kansas City Center
02:30PM 36.9583 -99.7031 275° West 453 521 43,000  Level Kansas City Center
02:31PM 36.9697 -99.8594 275° West 453 521 43,000  Level Kansas City Center
02:32PM 36.9808 -100.0175 275° West 456 525 43,000  Level Kansas City Center
02:33PM 36.9944 -100.2042 275° West 456 525 43,000  Level Kansas City Center
02:34PM 37.0044 -100.3558 275° West 456 525 43,000  Level Kansas City Center
02:35PM 37.0142 -100.5056 275° West 453 521 43,000  Level Kansas City Center
02:36PM 37.0247 -100.6831 274° West 455 524 43,000  Level Kansas City Center
02:37PM 37.0350 -100.8336 275° West 453 521 43,000  Level Kansas City Center
02:38PM 37.0458 -101.0089 274° West 452 520 43,000  Level Kansas City Center
02:39PM 37.0603 -101.1597 277° West 453 521 43,000  Level Kansas City Center
02:40PM 37.0744 -101.3111 277° West 455 524 43,000  Level Kansas City Center
02:41PM 37.0908 -101.4869 277° West 454 522 43,000  Level Kansas City Center
02:42PM 37.1039 -101.6381 276° West 454 522 43,000  Level Kansas City Center
02:44PM 37.1189 -101.8117 276° West 452 520 43,000  Level Kansas City Center
02:45PM 37.1317 -101.9617 276° West 451 519 43,000  Level Kansas City Center
02:46PM 37.1464 -102.1369 276° West 452 520 43,000  Level Kansas City Center
02:47PM 37.1586 -102.2869 276° West 451 519 43,000  Level Kansas City Center
02:47PM 37.1700 -102.4300 276° West 452 520 43,000  Level Albuquerque Center
02:48PM 37.1828 -102.5794 276° West 452 520 43,000  Level Albuquerque Center
02:49PM 37.1961 -102.7553 275° West 453 521 43,000  Level Albuquerque Center
02:51PM 37.2072 -102.9061 275° West 453 521 43,000  Level Albuquerque Center
02:52PM 37.2189 -103.0569 276° West 454 522 43,000  Level Albuquerque Center
02:53PM 37.2317 -103.2322 275° West 452 520 43,000  Level Albuquerque Center
02:54PM 37.2436 -103.3853 276° West 458 527 43,000  Level Albuquerque Center
02:55PM 37.2536 -103.5364 275° West 455 524 43,000  Level Denver Center
02:56PM 37.2639 -103.7136 274° West 455 524 43,000  Level Denver Center
02:57PM 37.2703 -103.8664 273° West 453 521 43,000  Level Denver Center
02:58PM 37.2792 -104.0450 274° West 454 522 43,000  Level Denver Center
02:59PM 37.2858 -104.1986 273° West 454 522 43,000  Level Denver Center
03:00PM 37.2936 -104.3742 273° West 449 517 43,000  Level Denver Center
03:01PM 37.3019 -104.5492 273° West 446 513 43,000  Level Denver Center
03:02PM 37.3092 -104.7250 273° West 449 517 43,000  Level Denver Center
03:03PM 37.3144 -104.8758 273° West 452 520 43,000  Level Denver Center
03:04PM 37.3211 -105.0514 273° West 451 519 43,000  Level Denver Center
03:05PM 37.3281 -105.2056 273° West 453 521 43,000  Level Denver Center
03:06PM 37.3344 -105.3789 273° West 447 514 43,000  Level Denver Center
03:07PM 37.3386 -105.5289 272° West 447 514 43,000  Level Denver Center
03:08PM 37.3436 -105.6786 272° West 448 516 43,000  Level Denver Center
03:09PM 37.3544 -105.8514 275° West 446 513 43,000  Level Denver Center
03:10PM 37.3792 -105.9983 282° West 450 518 43,000  Level Denver Center
03:11PM 37.4056 -106.1683 281° West 444 511 43,000  Level Denver Center
03:12PM 37.4294 -106.3150 282° West 447 514 43,000  Level Denver Center
03:13PM 37.4561 -106.4856 281° West 445 512 43,000  Level Denver Center
03:14PM 37.4781 -106.6292 281° West 442 509 43,000  Level Denver Center
03:15PM 37.5039 -106.7983 281° West 441 507 43,000  Level Denver Center
03:17PM 37.5256 -106.9417 281° West 437 503 43,000  Level Denver Center
03:18PM 37.5503 -107.1097 281° West 437 503 43,000  Level Denver Center
03:19PM 37.5722 -107.2553 281° West 441 507 43,000  Level Denver Center
03:20PM 37.5942 -107.4028 281° West 446 513 43,000  Level Denver Center
03:21PM 37.6189 -107.5747 280° West 447 514 43,000  Level Denver Center
03:22PM 37.6403 -107.7208 281° West 445 512 43,000  Level Denver Center
03:23PM 37.6647 -107.8928 280° West 448 516 43,000  Level Denver Center
03:24PM 37.6861 -108.0414 280° West 449 517 43,000  Level Denver Center
03:25PM 37.7106 -108.2147 280° West 449 517 43,000  Level Denver Center
03:26PM 37.7311 -108.3636 280° West 450 518 43,000  Level Denver Center
03:27PM 37.7550 -108.5361 280° West 448 516 43,000  Level Denver Center
03:28PM 37.7758 -108.6856 280° West 450 518 43,000  Level Denver Center
03:29PM 37.7989 -108.8617 279° West 454 522 43,000  Level Denver Center
03:30PM 37.8203 -109.0075 281° West 447 514 43,000  Level Denver Center
03:31PM 37.8433 -109.1556 281° West 449 517 43,000  Level Denver Center
03:32PM 37.8686 -109.3289 281° West 451 519 43,000  Level Denver Center
03:33PM 37.8911 -109.4783 281° West 453 521 43,000  Level Denver Center
03:34PM 37.9167 -109.6506 281° West 449 517 43,000  Level Denver Center
03:35PM 37.9375 -109.8011 280° West 451 519 43,000  Level Denver Center
03:36PM 37.9536 -109.9744 277° West 446 513 43,000  Level Denver Center
03:37PM 37.9675 -110.1247 277° West 448 516 43,000  Level Denver Center
03:38PM 37.9814 -110.2997 276° West 447 514 43,000  Level Denver Center
03:39PM 37.9936 -110.4494 276° West 447 514 43,000  Level Denver Center
03:40PM 38.0072 -110.6203 276° West 445 512 43,000  Level Denver Center
03:41PM 38.0192 -110.7711 276° West 447 514 43,000  Level Denver Center
03:42PM 38.0289 -110.8969 276° West 448 516 43,000  Level Salt Lake Center
03:43PM 38.0403 -111.0569 275° West 447 514 43,000  Level Salt Lake Center
03:44PM 38.0522 -111.2128 276° West 447 514 43,000  Level Salt Lake Center
03:45PM 38.0664 -111.3706 277° West 448 516 43,000  Level Salt Lake Center
03:46PM 38.0775 -111.5267 275° West 446 513 43,000  Level Salt Lake Center
03:47PM 38.0900 -111.7131 275° West 443 510 43,000  Level Salt Lake Center
03:48PM 38.1011 -111.8686 275° West 443 510 43,000  Level Salt Lake Center
03:49PM 38.1136 -112.0264 276° West 447 514 43,000  Level Salt Lake Center
03:50PM 38.1239 -112.1825 275° West 447 514 43,000  Level Salt Lake Center
03:51PM 38.1339 -112.3392 275° West 447 514 43,000  Level Salt Lake Center
03:52PM 38.1442 -112.4944 275° West 446 513 43,000  Level Salt Lake Center
03:53PM 38.1564 -112.6811 275° West 446 513 43,000  Level Salt Lake Center
03:54PM 38.1658 -112.8364 274° West 445 512 43,000  Level Salt Lake Center
03:55PM 38.1753 -112.9933 274° West 447 514 43,000  Level Salt Lake Center
03:56PM 38.1847 -113.1483 274° West 444 511 43,000  Level Salt Lake Center
03:58PM 38.1933 -113.3050 274° West 447 514 43,000  Level Salt Lake Center
03:59PM 38.2039 -113.4914 274° West 446 513 43,000  Level Salt Lake Center
04:00PM 38.2125 -113.6469 274° West 445 512 43,000  Level Salt Lake Center
04:01PM 38.2208 -113.8025 274° West 444 511 43,000  Level Salt Lake Center
04:02PM 38.2292 -113.9586 274° West 444 511 43,000  Level Salt Lake Center
04:03PM 38.2378 -114.1133 274° West 441 507 43,000  Level Salt Lake Center
04:04PM 38.2436 -114.2700 273° West 445 512 43,000  Level Salt Lake Center
04:05PM 38.2456 -114.4575 271° West 440 506 43,000  Level Salt Lake Center
04:06PM 38.2292 -114.6117 262° West 438 504 43,000  Level Salt Lake Center
04:07PM 38.2161 -114.7650 264° West 439 505 43,000  Level Salt Lake Center
04:08PM 38.2011 -114.9194 263° West 440 506 43,000  Level Salt Lake Center
04:09PM 38.1872 -115.0742 264° West 442 509 43,000  Level Salt Lake Center
04:10PM 38.1711 -115.2292 263° West 442 509 43,000  Level Salt Lake Center
04:11PM 38.1528 -115.4147 263° West 442 509 43,000  Level Salt Lake Center
04:12PM 38.1383 -115.5681 263° West 439 505 43,000  Level Salt Lake Center
04:13PM 38.1225 -115.7239 263° West 444 511 43,000  Level Salt Lake Center
04:14PM 38.1064 -115.8775 262° West 440 506 43,000  Level Salt Lake Center
04:15PM 38.0917 -116.0308 263° West 440 506 43,000  Level Salt Lake Center
04:16PM 38.0750 -116.1856 262° West 442 509 43,000  Level Salt Lake Center
04:17PM 38.0583 -116.3403 262° West 442 509 43,000  Level Salt Lake Center
04:18PM 38.0422 -116.4947 263° West 444 511 43,000  Level Oakland Center
04:19PM 38.0217 -116.6806 262° West 442 509 43,000  Level Salt Lake Center
04:20PM 38.0047 -116.8361 262° West 443 510 43,000  Level Salt Lake Center
04:21PM 37.9906 -116.9594 262° West 442 509 43,000  Level Oakland Center
04:22PM 37.9728 -117.1172 262° West 443 510 43,000  Level Oakland Center
04:23PM 37.9333 -117.2692 252° West 447 514 43,000  Level Oakland Center
04:24PM 37.8833 -117.4125 246° West 440 506 43,000  Level Oakland Center
04:25PM 37.8231 -117.5817 246° West 438 504 43,000  Level Oakland Center
04:26PM 37.7700 -117.7217 244° Southwest 440 506 43,000  Level Oakland Center
04:27PM 37.7192 -117.8614 245° Southwest 437 503 43,000  Level Oakland Center
04:28PM 37.6669 -118.0025 245° Southwest 441 507 43,000 -840 Level Oakland Center
04:29PM 37.6158 -118.1406 245° Southwest 437 503 41,400 -2,160 Descending Oakland Center
04:30PM 37.5681 -118.2711 245° Southwest 414 476 38,600 -2,640 Descending Oakland Center
04:31PM 37.5172 -118.4086 245° Southwest 429 494 36,000 -2,640 Descending Oakland Center
04:32PM 37.4653 -118.5481 245° Southwest 439 505 33,300 -2,700 Descending Oakland Center
04:33PM 37.4111 -118.6983 246° West 470 541 30,500 -1,620 Descending Oakland Center
04:34PM 37.3497 -118.8678 246° West 493 567 30,000 -300 Descending Oakland Center
04:35PM 37.3469 -119.0342 269° West 480 552 30,000 -360 Level Oakland Center
04:37PM 37.3469 -119.2011 270° West 479 551 29,300 -1,020 Descending Oakland Center
04:38PM 37.3269 -119.4061 263° West 495 570 28,000 -900 Descending Oakland Center
04:39PM 37.3092 -119.5722 262° West 485 558 27,500 -1,320 Descending Oakland Center
04:40PM 37.2922 -119.7342 263° West 473 544 25,300 -2,220 Descending Oakland Center
04:41PM 37.2756 -119.8894 262° West 481 554 23,000 -2,400 Descending Oakland Center
04:42PM 37.2578 -120.0536 262° West 476 548 20,500 -1,920 Descending Oakland Center
04:43PM 37.2369 -120.2408 262° West 456 525 19,100 -1,920 Descending Oakland Center
04:44PM 37.2167 -120.4167 262° West 447 514 16,200 -2,460 Descending Northern Cal TRACON
04:45PM 37.1833 -120.5833 256° West 431 496 13,300 -2,460 Descending Northern Cal TRACON
04:46PM 37.1500 -120.7167 253° West 396 456 11,100 -1,260 Descending Northern Cal TRACON
04:47PM 37.1333 -120.8333 260° West 389 448 11,000 -120 Descending Northern Cal TRACON
04:48PM 37.1033 -120.9369 250° West 381 438 10,900 -540 Descending Oakland Center
04:49PM 37.0747 -121.0656 254° West 382 440 10,000 -480 Descending Oakland Center
04:50PM 37.0456 -121.1942 254° West 383 441 10,000 -180 Level Oakland Center
04:51PM 37.0186 -121.3167 255° West 375 432 9,700 -960 Descending Oakland Center
04:52PM 36.9914 -121.4369 254° West 320 368 8,100 -1,200 Descending Oakland Center
04:53PM 37.0069 -121.5256 282° West 290 334 7,300 -1,080 Descending Oakland Center
04:54PM 37.0653 -121.5942 317° Northwest 290 334 5,900 -900 Descending Oakland Center
04:55PM 37.1178 -121.6572 316° Northwest 272 313 5,500 -480 Descending Oakland Center
04:56PM 37.1667 -121.7167 316° Northwest 255 293 5,000 -1,020 Descending Northern Cal TRACON
04:57PM 37.2167 -121.7833 313° West 249 287 3,600 -1,260 Descending Northern Cal TRACON
04:58PM 37.2667 -121.8333 321° Northwest 236 272 2,500 -1,200 Descending Northern Cal TRACON
04:59PM 37.3167 -121.8833 322° Northwest 212 244 1,200 7,980 Descending Northern Cal TRACON
05:00PM 37.3594 -121.9286 320° Northwest 185 213 20,000 15,840 Climbing Oakland Center
05:02PM 37.3627 -121.9291 North  Level Estimated
05:09PM 37.3627 -121.9291 North  Level Estimated